Mayo Airport
CYMA : now visible

Airfield :











YOU CAN JOIN US ON...

 
LOGIN :

Register | Disclaimer

   EN    FR    IT 

 









Legend :    VFR   Marginal VFR   IFR   Intensive IFR   Very Intensive IFR
Visi :
Ceiling :
>= 8 km
>= 3000ft
5 to 8 km
1000 to 3000 ft
1500m to 5 km
500 to 1000 ft
800 to 1500m
200 to 500 ft
< 800m
< 200 ft
Symbols :   Thunderstorms  Fog  Heavy snow  Heavy precipitations  Wind > 20 kt






- Airport Elevation : 1653 ft
- IATA code : YMA


CYMA - Mayo

CURRENT METAR :
  • 300200Z 07007KT 030V120 20SM FEW065 BKN110 BKN220 22/M03 A2996 RMK CU2AC5CI1 CI TR SLP158 DENSITY ALT 2800FT

EXPIRED METARs :
  • 300100Z 10006KT 050V120 20SM FEW065 BKN100 21/M04 A2999 RMK CU2AC5 SLP167 DENSITY ALT 2700FT
  • 300000Z 06008G17KT 20SM SCT065 BKN100 21/M03 A3000 RMK CU4AC3 CLIMAT 22.0/18.4/0.0 SLP170 DENSITY ALT 2700FT

TAF TAF CYMA
Valid from the 30 at 00:00 until the 30 at 12:00 UTC


292338Z 3000/3012 08010G20KT P6SM BKN060
FM300600 07010KT P6SM FEW060 SCT240 RMK NXT FCST BY 300600Z
CZEG FIR / North America



MET'MAP, your aeronautical weather chart ! - Copyright ORBIFLY December 2007 - Disclaimer

ORBIFLY MET'MAP TEAM :

Programming & Development : Alexandra Zaïnal
Concept & original design : Baudouin d'Aumeries
Assistance for programming : Marc-Olivier Méhu
Technical & hardware support : Manuel Goepfert

Contact : metmap@orbifly.com




SOURCES & CREDITS :

   NOAA       Earth
Advisory